QUG weather

Chichester/Goodwood Airport
Chichester, England, United Kingdom

Public forecast

Using degrees Celsius for public forecast. Weather courtesy of forecast.io.

METAR (pilot weather report)

Report is more than 6 hours old.

Closest report is Shoreham Airport, 17.6 nm (32.5 km) E. Retrieved 2019/04/25 18:50 UTC (7 hours ago):

EGKA 251850Z 18008KT CAVOK 11/07 Q1003

TAF (pilot weather forecast)

Forecast is more than 12 hours old.

Closest forecast is Shoreham Airport, 17.6 nm (32.5 km) E. Retrieved 2016/03/02 12:00 UTC (3 years ago):

TAF EGKA 021104Z 0212/0221 25015G25KT 9999 SCT020 TEMPO 0212/0216 25025G38KT 5000 SHRA BKN012CB PROB30 TEMPO 0212/0215 2500 +SHGS +SHRASN TEMPO 0216/0221 29025G35KT TEMPO 0218/0221 BKN014